sensor_id;sensor_type;location;lat;lon;timestamp;temperature;humidity
78490;DHT22;67776;52.012;4.736;2024-03-29T00:01:13;9.11;77.24
78490;DHT22;67776;52.012;4.736;2024-03-29T00:03:38;9.02;77.87
78490;DHT22;67776;52.012;4.736;2024-03-29T00:06:04;9.00;77.73
78490;DHT22;67776;52.012;4.736;2024-03-29T00:08:29;8.97;77.60
78490;DHT22;67776;52.012;4.736;2024-03-29T00:10:54;9.00;77.76
78490;DHT22;67776;52.012;4.736;2024-03-29T00:13:20;9.00;77.39
78490;DHT22;67776;52.012;4.736;2024-03-29T00:15:46;8.98;77.54
78490;DHT22;67776;52.012;4.736;2024-03-29T00:18:11;9.05;77.03
78490;DHT22;67776;52.012;4.736;2024-03-29T00:20:36;9.07;77.03
78490;DHT22;67776;52.012;4.736;2024-03-29T00:23:02;9.11;77.05
78490;DHT22;67776;52.012;4.736;2024-03-29T00:25:27;9.11;77.26
78490;DHT22;67776;52.012;4.736;2024-03-29T00:27:52;9.07;77.44
78490;DHT22;67776;52.012;4.736;2024-03-29T00:30:18;9.12;77.07
78490;DHT22;67776;52.012;4.736;2024-03-29T00:32:43;9.04;77.25
78490;DHT22;67776;52.012;4.736;2024-03-29T00:35:08;9.04;77.39
78490;DHT22;67776;52.012;4.736;2024-03-29T00:37:33;8.98;76.92
78490;DHT22;67776;52.012;4.736;2024-03-29T00:39:59;9.02;77.12
78490;DHT22;67776;52.012;4.736;2024-03-29T00:42:24;8.98;77.39
78490;DHT22;67776;52.012;4.736;2024-03-29T00:44:50;8.98;76.99
78490;DHT22;67776;52.012;4.736;2024-03-29T00:47:15;8.97;77.63
78490;DHT22;67776;52.012;4.736;2024-03-29T00:49:41;8.97;77.42
78490;DHT22;67776;52.012;4.736;2024-03-29T00:52:06;8.95;77.20
78490;DHT22;67776;52.012;4.736;2024-03-29T00:54:32;9.00;77.36
78490;DHT22;67776;52.012;4.736;2024-03-29T00:56:57;8.97;77.39
78490;DHT22;67776;52.012;4.736;2024-03-29T00:59:24;8.95;77.50
78490;DHT22;67776;52.012;4.736;2024-03-29T01:01:50;9.01;77.43
78490;DHT22;67776;52.012;4.736;2024-03-29T01:04:15;9.05;77.05
78490;DHT22;67776;52.012;4.736;2024-03-29T01:06:41;9.04;77.83
78490;DHT22;67776;52.012;4.736;2024-03-29T01:09:06;9.02;77.71
78490;DHT22;67776;52.012;4.736;2024-03-29T01:11:32;9.02;77.57
78490;DHT22;67776;52.012;4.736;2024-03-29T01:13:57;9.02;77.54
78490;DHT22;67776;52.012;4.736;2024-03-29T01:16:24;9.07;77.22
78490;DHT22;67776;52.012;4.736;2024-03-29T01:18:50;9.10;77.01
78490;DHT22;67776;52.012;4.736;2024-03-29T01:21:17;9.08;77.05
78490;DHT22;67776;52.012;4.736;2024-03-29T01:23:43;9.05;77.56
78490;DHT22;67776;52.012;4.736;2024-03-29T01:26:08;9.00;77.87
78490;DHT22;67776;52.012;4.736;2024-03-29T01:28:36;9.07;76.95
78490;DHT22;67776;52.012;4.736;2024-03-29T01:31:03;9.05;77.39
78490;DHT22;67776;52.012;4.736;2024-03-29T01:33:28;9.01;77.49
78490;DHT22;67776;52.012;4.736;2024-03-29T01:35:57;9.07;76.89
78490;DHT22;67776;52.012;4.736;2024-03-29T01:38:23;9.23;76.29
78490;DHT22;67776;52.012;4.736;2024-03-29T01:40:48;9.33;75.34
78490;DHT22;67776;52.012;4.736;2024-03-29T01:43:13;9.32;75.62
78490;DHT22;67776;52.012;4.736;2024-03-29T01:45:39;9.32;76.07
78490;DHT22;67776;52.012;4.736;2024-03-29T01:48:06;9.23;75.98
78490;DHT22;67776;52.012;4.736;2024-03-29T01:50:31;9.14;77.19
78490;DHT22;67776;52.012;4.736;2024-03-29T01:52:57;9.01;77.50
78490;DHT22;67776;52.012;4.736;2024-03-29T01:55:23;9.00;76.96
78490;DHT22;67776;52.012;4.736;2024-03-29T01:57:49;8.91;76.98
78490;DHT22;67776;52.012;4.736;2024-03-29T02:00:16;8.91;77.10
78490;DHT22;67776;52.012;4.736;2024-03-29T02:02:41;8.89;77.31
78490;DHT22;67776;52.012;4.736;2024-03-29T02:05:06;8.85;77.59
78490;DHT22;67776;52.012;4.736;2024-03-29T02:07:32;8.80;77.94
78490;DHT22;67776;52.012;4.736;2024-03-29T02:09:57;8.74;78.46
78490;DHT22;67776;52.012;4.736;2024-03-29T02:12:23;8.73;78.34
78490;DHT22;67776;52.012;4.736;2024-03-29T02:14:48;8.71;78.46
78490;DHT22;67776;52.012;4.736;2024-03-29T02:17:13;8.67;78.95
78490;DHT22;67776;52.012;4.736;2024-03-29T02:19:39;8.67;78.50
78490;DHT22;67776;52.012;4.736;2024-03-29T02:22:05;8.71;78.11
78490;DHT22;67776;52.012;4.736;2024-03-29T02:24:31;8.68;78.45
78490;DHT22;67776;52.012;4.736;2024-03-29T02:26:58;8.70;77.92
78490;DHT22;67776;52.012;4.736;2024-03-29T02:29:24;8.61;78.45
78490;DHT22;67776;52.012;4.736;2024-03-29T02:31:50;8.63;78.19
78490;DHT22;67776;52.012;4.736;2024-03-29T02:34:17;8.67;77.79
78490;DHT22;67776;52.012;4.736;2024-03-29T02:36:43;8.71;77.37
78490;DHT22;67776;52.012;4.736;2024-03-29T02:39:09;8.74;77.41
78490;DHT22;67776;52.012;4.736;2024-03-29T02:41:35;8.68;77.46
78490;DHT22;67776;52.012;4.736;2024-03-29T02:44:00;8.74;77.26
78490;DHT22;67776;52.012;4.736;2024-03-29T02:46:26;8.78;77.31
78490;DHT22;67776;52.012;4.736;2024-03-29T02:48:52;8.73;77.75
78490;DHT22;67776;52.012;4.736;2024-03-29T02:51:18;8.77;77.04
78490;DHT22;67776;52.012;4.736;2024-03-29T02:53:43;8.83;76.65
78490;DHT22;67776;52.012;4.736;2024-03-29T02:56:08;8.91;76.67
78490;DHT22;67776;52.012;4.736;2024-03-29T02:58:35;8.97;76.42
78490;DHT22;67776;52.012;4.736;2024-03-29T03:01:07;9.11;75.72
78490;DHT22;67776;52.012;4.736;2024-03-29T03:03:33;9.21;74.91
78490;DHT22;67776;52.012;4.736;2024-03-29T03:05:58;9.18;75.71
78490;DHT22;67776;52.012;4.736;2024-03-29T03:08:23;9.18;76.07
78490;DHT22;67776;52.012;4.736;2024-03-29T03:11:07;9.19;75.25
78490;DHT22;67776;52.012;4.736;2024-03-29T03:13:32;9.28;74.82
78490;DHT22;67776;52.012;4.736;2024-03-29T03:15:58;9.25;75.67
78490;DHT22;67776;52.012;4.736;2024-03-29T03:18:23;9.28;75.16
78490;DHT22;67776;52.012;4.736;2024-03-29T03:20:55;9.30;74.81
78490;DHT22;67776;52.012;4.736;2024-03-29T03:23:23;9.29;74.70
78490;DHT22;67776;52.012;4.736;2024-03-29T03:25:59;9.35;74.68
78490;DHT22;67776;52.012;4.736;2024-03-29T03:28:25;9.36;75.17
78490;DHT22;67776;52.012;4.736;2024-03-29T03:30:51;9.33;74.81
78490;DHT22;67776;52.012;4.736;2024-03-29T03:33:17;9.43;74.11
78490;DHT22;67776;52.012;4.736;2024-03-29T03:35:43;9.42;74.52
78490;DHT22;67776;52.012;4.736;2024-03-29T03:38:08;9.46;74.32
78490;DHT22;67776;52.012;4.736;2024-03-29T03:40:37;9.40;74.69
78490;DHT22;67776;52.012;4.736;2024-03-29T03:43:03;9.47;73.77
78490;DHT22;67776;52.012;4.736;2024-03-29T03:45:34;9.57;73.55
78490;DHT22;67776;52.012;4.736;2024-03-29T03:47:59;9.57;73.37
78490;DHT22;67776;52.012;4.736;2024-03-29T03:50:24;9.59;73.27
78490;DHT22;67776;52.012;4.736;2024-03-29T03:52:50;9.60;73.70
78490;DHT22;67776;52.012;4.736;2024-03-29T03:55:15;9.56;73.69
78490;DHT22;67776;52.012;4.736;2024-03-29T03:57:40;9.50;74.17
78490;DHT22;67776;52.012;4.736;2024-03-29T04:00:06;9.40;74.97
78490;DHT22;67776;52.012;4.736;2024-03-29T04:02:32;9.36;75.37
78490;DHT22;67776;52.012;4.736;2024-03-29T04:04:58;9.32;75.05
78490;DHT22;67776;52.012;4.736;2024-03-29T04:07:23;9.33;74.81
78490;DHT22;67776;52.012;4.736;2024-03-29T04:09:51;9.32;74.64
78490;DHT22;67776;52.012;4.736;2024-03-29T04:12:17;9.42;73.89
78490;DHT22;67776;52.012;4.736;2024-03-29T04:14:42;9.33;74.99
78490;DHT22;67776;52.012;4.736;2024-03-29T04:17:07;9.39;74.27
78490;DHT22;67776;52.012;4.736;2024-03-29T04:19:32;9.33;74.81
78490;DHT22;67776;52.012;4.736;2024-03-29T04:21:58;9.36;74.81
78490;DHT22;67776;52.012;4.736;2024-03-29T04:24:23;9.38;74.38
78490;DHT22;67776;52.012;4.736;2024-03-29T04:26:48;9.38;74.37
78490;DHT22;67776;52.012;4.736;2024-03-29T04:29:14;9.38;74.16
78490;DHT22;67776;52.012;4.736;2024-03-29T04:31:39;9.29;75.66
78490;DHT22;67776;52.012;4.736;2024-03-29T04:34:05;9.22;76.25
78490;DHT22;67776;52.012;4.736;2024-03-29T04:36:30;9.23;75.58
78490;DHT22;67776;52.012;4.736;2024-03-29T04:38:56;9.26;75.62
78490;DHT22;67776;52.012;4.736;2024-03-29T04:41:21;9.22;75.99
78490;DHT22;67776;52.012;4.736;2024-03-29T04:43:47;9.16;76.58
78490;DHT22;67776;52.012;4.736;2024-03-29T04:46:13;9.15;76.91
78490;DHT22;67776;52.012;4.736;2024-03-29T04:48:42;9.16;77.21
78490;DHT22;67776;52.012;4.736;2024-03-29T04:51:09;9.16;77.14
78490;DHT22;67776;52.012;4.736;2024-03-29T04:53:38;9.05;78.16
78490;DHT22;67776;52.012;4.736;2024-03-29T04:56:04;9.00;78.10
78490;DHT22;67776;52.012;4.736;2024-03-29T04:58:30;8.98;78.35
78490;DHT22;67776;52.012;4.736;2024-03-29T05:00:55;9.00;78.38
78490;DHT22;67776;52.012;4.736;2024-03-29T05:03:21;8.98;78.74
78490;DHT22;67776;52.012;4.736;2024-03-29T05:05:47;8.92;79.32
78490;DHT22;67776;52.012;4.736;2024-03-29T05:08:13;8.85;80.23
78490;DHT22;67776;52.012;4.736;2024-03-29T05:10:41;8.80;80.72
78490;DHT22;67776;52.012;4.736;2024-03-29T05:13:07;8.70;81.87
78490;DHT22;67776;52.012;4.736;2024-03-29T05:15:33;8.61;83.25
78490;DHT22;67776;52.012;4.736;2024-03-29T05:17:58;8.43;84.90
78490;DHT22;67776;52.012;4.736;2024-03-29T05:20:24;8.26;86.52
78490;DHT22;67776;52.012;4.736;2024-03-29T05:22:49;8.19;86.55
78490;DHT22;67776;52.012;4.736;2024-03-29T05:25:15;8.11;87.02
78490;DHT22;67776;52.012;4.736;2024-03-29T05:27:41;8.09;87.71
78490;DHT22;67776;52.012;4.736;2024-03-29T05:30:07;8.04;87.95
78490;DHT22;67776;52.012;4.736;2024-03-29T05:32:34;8.01;88.58
78490;DHT22;67776;52.012;4.736;2024-03-29T05:35:00;7.98;89.14
78490;DHT22;67776;52.012;4.736;2024-03-29T05:37:25;7.91;89.52
78490;DHT22;67776;52.012;4.736;2024-03-29T05:39:51;7.88;89.86
78490;DHT22;67776;52.012;4.736;2024-03-29T05:42:31;7.84;90.17
78490;DHT22;67776;52.012;4.736;2024-03-29T05:44:57;7.77;90.51
78490;DHT22;67776;52.012;4.736;2024-03-29T05:47:22;7.80;90.73
78490;DHT22;67776;52.012;4.736;2024-03-29T05:49:48;7.81;90.57
78490;DHT22;67776;52.012;4.736;2024-03-29T05:52:14;7.84;90.62
78490;DHT22;67776;52.012;4.736;2024-03-29T05:54:40;7.87;90.57
78490;DHT22;67776;52.012;4.736;2024-03-29T05:57:05;7.85;90.66
78490;DHT22;67776;52.012;4.736;2024-03-29T05:59:32;7.85;90.55
78490;DHT22;67776;52.012;4.736;2024-03-29T06:01:57;7.87;90.49
78490;DHT22;67776;52.012;4.736;2024-03-29T06:04:22;7.88;90.71
78490;DHT22;67776;52.012;4.736;2024-03-29T06:06:54;7.90;90.77
78490;DHT22;67776;52.012;4.736;2024-03-29T06:09:20;7.92;90.86
78490;DHT22;67776;52.012;4.736;2024-03-29T06:11:45;7.98;90.70
78490;DHT22;67776;52.012;4.736;2024-03-29T06:14:10;7.97;90.77
78490;DHT22;67776;52.012;4.736;2024-03-29T06:16:36;8.02;91.04
78490;DHT22;67776;52.012;4.736;2024-03-29T06:19:20;7.99;91.01
78490;DHT22;67776;52.012;4.736;2024-03-29T06:21:45;7.98;91.09
78490;DHT22;67776;52.012;4.736;2024-03-29T06:24:11;7.95;91.05
78490;DHT22;67776;52.012;4.736;2024-03-29T06:26:40;7.97;91.21
78490;DHT22;67776;52.012;4.736;2024-03-29T06:29:08;7.98;91.19
78490;DHT22;67776;52.012;4.736;2024-03-29T06:31:36;8.01;91.41
78490;DHT22;67776;52.012;4.736;2024-03-29T06:34:01;7.99;91.66
78490;DHT22;67776;52.012;4.736;2024-03-29T06:36:27;8.01;91.62
78490;DHT22;67776;52.012;4.736;2024-03-29T06:38:53;8.01;91.74
78490;DHT22;67776;52.012;4.736;2024-03-29T06:41:19;8.01;91.96
78490;DHT22;67776;52.012;4.736;2024-03-29T06:43:45;8.09;91.90
78490;DHT22;67776;52.012;4.736;2024-03-29T06:46:12;8.12;91.79
78490;DHT22;67776;52.012;4.736;2024-03-29T06:48:37;8.13;91.96
78490;DHT22;67776;52.012;4.736;2024-03-29T06:51:03;8.21;91.74
78490;DHT22;67776;52.012;4.736;2024-03-29T06:53:28;8.25;91.62
78490;DHT22;67776;52.012;4.736;2024-03-29T06:55:56;8.28;91.88
78490;DHT22;67776;52.012;4.736;2024-03-29T06:58:22;8.33;91.26
78490;DHT22;67776;52.012;4.736;2024-03-29T07:00:48;8.32;91.16
78490;DHT22;67776;52.012;4.736;2024-03-29T07:03:15;8.30;91.04
78490;DHT22;67776;52.012;4.736;2024-03-29T07:05:41;8.40;91.04
78490;DHT22;67776;52.012;4.736;2024-03-29T07:08:06;8.42;90.66
78490;DHT22;67776;52.012;4.736;2024-03-29T07:10:33;8.53;90.98
78490;DHT22;67776;52.012;4.736;2024-03-29T07:12:58;8.52;90.68
78490;DHT22;67776;52.012;4.736;2024-03-29T07:15:24;8.56;90.80
78490;DHT22;67776;52.012;4.736;2024-03-29T07:17:49;8.56;90.32
78490;DHT22;67776;52.012;4.736;2024-03-29T07:20:16;8.67;89.70
78490;DHT22;67776;52.012;4.736;2024-03-29T07:22:41;8.73;89.52
78490;DHT22;67776;52.012;4.736;2024-03-29T07:25:07;8.74;88.83
78490;DHT22;67776;52.012;4.736;2024-03-29T07:27:32;8.77;89.11
78490;DHT22;67776;52.012;4.736;2024-03-29T07:30:04;8.88;88.98
78490;DHT22;67776;52.012;4.736;2024-03-29T07:32:30;8.91;89.04
78490;DHT22;67776;52.012;4.736;2024-03-29T07:34:56;9.00;88.38
78490;DHT22;67776;52.012;4.736;2024-03-29T07:37:23;8.88;87.82
78490;DHT22;67776;52.012;4.736;2024-03-29T07:39:49;9.00;88.36
78490;DHT22;67776;52.012;4.736;2024-03-29T07:42:14;9.15;88.12
78490;DHT22;67776;52.012;4.736;2024-03-29T07:44:39;9.23;87.97
78490;DHT22;67776;52.012;4.736;2024-03-29T07:47:05;9.28;87.98
78490;DHT22;67776;52.012;4.736;2024-03-29T07:49:30;9.25;87.82
78490;DHT22;67776;52.012;4.736;2024-03-29T07:51:55;9.25;87.87
78490;DHT22;67776;52.012;4.736;2024-03-29T07:54:20;9.28;87.28
78490;DHT22;67776;52.012;4.736;2024-03-29T07:56:46;9.29;87.10
78490;DHT22;67776;52.012;4.736;2024-03-29T07:59:11;9.25;86.80
78490;DHT22;67776;52.012;4.736;2024-03-29T08:01:36;9.30;87.76
78490;DHT22;67776;52.012;4.736;2024-03-29T08:04:02;9.29;86.92
78490;DHT22;67776;52.012;4.736;2024-03-29T08:06:27;9.26;86.11
78490;DHT22;67776;52.012;4.736;2024-03-29T08:08:53;9.32;86.66
78490;DHT22;67776;52.012;4.736;2024-03-29T08:11:18;9.39;87.31
78490;DHT22;67776;52.012;4.736;2024-03-29T08:13:43;9.42;86.67
78490;DHT22;67776;52.012;4.736;2024-03-29T08:16:09;9.40;85.72
78490;DHT22;67776;52.012;4.736;2024-03-29T08:18:36;9.56;85.64
78490;DHT22;67776;52.012;4.736;2024-03-29T08:21:01;9.67;85.69
78490;DHT22;67776;52.012;4.736;2024-03-29T08:23:28;9.74;86.61
78490;DHT22;67776;52.012;4.736;2024-03-29T08:25:53;9.98;86.03
78490;DHT22;67776;52.012;4.736;2024-03-29T08:28:22;10.06;83.73
78490;DHT22;67776;52.012;4.736;2024-03-29T08:31:00;9.95;83.96
78490;DHT22;67776;52.012;4.736;2024-03-29T08:33:26;9.95;84.15
78490;DHT22;67776;52.012;4.736;2024-03-29T08:35:52;10.04;84.60
78490;DHT22;67776;52.012;4.736;2024-03-29T08:38:18;10.04;84.19
78490;DHT22;67776;52.012;4.736;2024-03-29T08:40:43;10.09;84.24
78490;DHT22;67776;52.012;4.736;2024-03-29T08:43:11;10.32;84.27
78490;DHT22;67776;52.012;4.736;2024-03-29T08:45:37;10.38;83.59
78490;DHT22;67776;52.012;4.736;2024-03-29T08:48:06;10.63;83.79
78490;DHT22;67776;52.012;4.736;2024-03-29T08:50:32;10.56;83.16
78490;DHT22;67776;52.012;4.736;2024-03-29T08:52:57;10.68;82.93
78490;DHT22;67776;52.012;4.736;2024-03-29T08:55:22;10.88;82.68
78490;DHT22;67776;52.012;4.736;2024-03-29T08:57:48;10.98;81.72
78490;DHT22;67776;52.012;4.736;2024-03-29T09:00:13;10.93;81.22
78490;DHT22;67776;52.012;4.736;2024-03-29T09:02:39;10.88;82.34
78490;DHT22;67776;52.012;4.736;2024-03-29T09:05:04;11.18;81.61
78490;DHT22;67776;52.012;4.736;2024-03-29T09:07:30;11.56;80.88
78490;DHT22;67776;52.012;4.736;2024-03-29T09:09:55;11.35;80.93
78490;DHT22;67776;52.012;4.736;2024-03-29T09:12:21;11.40;80.45
78490;DHT22;67776;52.012;4.736;2024-03-29T09:14:47;11.81;80.55
78490;DHT22;67776;52.012;4.736;2024-03-29T09:17:13;11.78;78.56
78490;DHT22;67776;52.012;4.736;2024-03-29T09:19:38;11.73;79.54
78490;DHT22;67776;52.012;4.736;2024-03-29T09:22:04;11.83;79.52
78490;DHT22;67776;52.012;4.736;2024-03-29T09:24:29;11.90;78.98
78490;DHT22;67776;52.012;4.736;2024-03-29T09:26:54;11.90;79.90
78490;DHT22;67776;52.012;4.736;2024-03-29T09:29:20;12.05;78.37
78490;DHT22;67776;52.012;4.736;2024-03-29T09:31:46;12.04;79.57
78490;DHT22;67776;52.012;4.736;2024-03-29T09:34:11;11.88;79.76
78490;DHT22;67776;52.012;4.736;2024-03-29T09:36:37;11.71;79.43
78490;DHT22;67776;52.012;4.736;2024-03-29T09:39:02;11.52;80.05
78490;DHT22;67776;52.012;4.736;2024-03-29T09:41:31;12.17;80.22
78490;DHT22;67776;52.012;4.736;2024-03-29T09:44:01;12.56;77.90
78490;DHT22;67776;52.012;4.736;2024-03-29T09:46:28;12.57;76.94
78490;DHT22;67776;52.012;4.736;2024-03-29T09:48:54;12.63;76.81
78490;DHT22;67776;52.012;4.736;2024-03-29T09:51:21;12.56;76.92
78490;DHT22;67776;52.012;4.736;2024-03-29T09:53:47;12.63;76.94
78490;DHT22;67776;52.012;4.736;2024-03-29T09:56:12;13.32;74.02
78490;DHT22;67776;52.012;4.736;2024-03-29T09:58:38;14.11;72.27
78490;DHT22;67776;52.012;4.736;2024-03-29T10:01:05;14.35;71.03
78490;DHT22;67776;52.012;4.736;2024-03-29T10:03:32;14.68;71.42
78490;DHT22;67776;52.012;4.736;2024-03-29T10:06:00;14.41;71.05
78490;DHT22;67776;52.012;4.736;2024-03-29T10:08:27;13.12;74.40
78490;DHT22;67776;52.012;4.736;2024-03-29T10:10:55;13.21;74.90
78490;DHT22;67776;52.012;4.736;2024-03-29T10:13:21;13.18;75.03
78490;DHT22;67776;52.012;4.736;2024-03-29T10:15:48;13.15;76.14
78490;DHT22;67776;52.012;4.736;2024-03-29T10:18:16;13.25;76.52
78490;DHT22;67776;52.012;4.736;2024-03-29T10:20:43;12.83;76.21
78490;DHT22;67776;52.012;4.736;2024-03-29T10:23:09;12.43;78.50
78490;DHT22;67776;52.012;4.736;2024-03-29T10:25:34;12.24;78.98
78490;DHT22;67776;52.012;4.736;2024-03-29T10:28:00;12.24;76.87
78490;DHT22;67776;52.012;4.736;2024-03-29T10:30:27;12.61;77.27
78490;DHT22;67776;52.012;4.736;2024-03-29T10:32:52;13.60;74.32
78490;DHT22;67776;52.012;4.736;2024-03-29T10:35:19;14.41;72.98
78490;DHT22;67776;52.012;4.736;2024-03-29T10:37:45;15.14;70.10
78490;DHT22;67776;52.012;4.736;2024-03-29T10:40:11;15.22;69.87
78490;DHT22;67776;52.012;4.736;2024-03-29T10:42:40;15.28;68.89
78490;DHT22;67776;52.012;4.736;2024-03-29T10:45:07;15.07;71.17
78490;DHT22;67776;52.012;4.736;2024-03-29T10:47:33;14.41;71.69
78490;DHT22;67776;52.012;4.736;2024-03-29T10:49:59;13.50;73.74
78490;DHT22;67776;52.012;4.736;2024-03-29T10:52:27;13.77;71.62
78490;DHT22;67776;52.012;4.736;2024-03-29T10:54:53;13.46;74.68
78490;DHT22;67776;52.012;4.736;2024-03-29T10:57:27;13.32;74.81
78490;DHT22;67776;52.012;4.736;2024-03-29T11:02:34;13.71;73.11
78490;DHT22;67776;52.012;4.736;2024-03-29T11:05:02;13.80;72.58
78490;DHT22;67776;52.012;4.736;2024-03-29T11:07:34;13.25;74.35
78490;DHT22;67776;52.012;4.736;2024-03-29T11:10:01;13.42;74.07
78490;DHT22;67776;52.012;4.736;2024-03-29T11:12:30;14.87;70.15
78490;DHT22;67776;52.012;4.736;2024-03-29T11:15:02;16.32;66.92
78490;DHT22;67776;52.012;4.736;2024-03-29T11:17:30;14.53;68.69
78490;DHT22;67776;52.012;4.736;2024-03-29T11:20:01;15.18;68.56
78490;DHT22;67776;52.012;4.736;2024-03-29T11:22:28;14.48;69.21
78490;DHT22;67776;52.012;4.736;2024-03-29T11:24:54;13.98;70.86
78490;DHT22;67776;52.012;4.736;2024-03-29T11:27:22;14.39;68.61
78490;DHT22;67776;52.012;4.736;2024-03-29T11:29:48;14.35;69.58
78490;DHT22;67776;52.012;4.736;2024-03-29T11:32:36;14.69;67.50
78490;DHT22;67776;52.012;4.736;2024-03-29T11:35:04;13.94;69.05
78490;DHT22;67776;52.012;4.736;2024-03-29T11:37:30;14.87;67.19
78490;DHT22;67776;52.012;4.736;2024-03-29T11:39:59;15.07;65.21
78490;DHT22;67776;52.012;4.736;2024-03-29T11:42:46;15.14;64.82
78490;DHT22;67776;52.012;4.736;2024-03-29T11:45:11;14.79;66.09
78490;DHT22;67776;52.012;4.736;2024-03-29T11:47:39;14.84;65.84
78490;DHT22;67776;52.012;4.736;2024-03-29T11:50:07;16.28;63.44
78490;DHT22;67776;52.012;4.736;2024-03-29T11:52:33;15.79;63.85
78490;DHT22;67776;52.012;4.736;2024-03-29T11:54:58;15.17;64.32
78490;DHT22;67776;52.012;4.736;2024-03-29T11:57:24;15.28;64.76
78490;DHT22;67776;52.012;4.736;2024-03-29T11:59:49;16.13;63.94
78490;DHT22;67776;52.012;4.736;2024-03-29T12:02:15;15.46;64.32
78490;DHT22;67776;52.012;4.736;2024-03-29T12:04:41;16.91;61.02
78490;DHT22;67776;52.012;4.736;2024-03-29T12:07:06;16.70;59.81
78490;DHT22;67776;52.012;4.736;2024-03-29T12:09:32;16.42;62.88
78490;DHT22;67776;52.012;4.736;2024-03-29T12:11:57;16.41;62.51
78490;DHT22;67776;52.012;4.736;2024-03-29T12:14:25;15.36;63.78
78490;DHT22;67776;52.012;4.736;2024-03-29T12:16:52;15.20;67.51
78490;DHT22;67776;52.012;4.736;2024-03-29T12:19:25;15.27;65.91
78490;DHT22;67776;52.012;4.736;2024-03-29T12:21:52;15.17;67.50
78490;DHT22;67776;52.012;4.736;2024-03-29T12:24:18;15.18;65.98
78490;DHT22;67776;52.012;4.736;2024-03-29T12:26:43;15.17;66.49
78490;DHT22;67776;52.012;4.736;2024-03-29T12:29:09;15.91;66.02
78490;DHT22;67776;52.012;4.736;2024-03-29T12:31:34;16.47;64.76
78490;DHT22;67776;52.012;4.736;2024-03-29T12:33:59;16.79;63.60
78490;DHT22;67776;52.012;4.736;2024-03-29T12:36:25;16.49;65.62
78490;DHT22;67776;52.012;4.736;2024-03-29T12:38:55;16.87;61.96
78490;DHT22;67776;52.012;4.736;2024-03-29T12:41:23;16.44;63.15
78490;DHT22;67776;52.012;4.736;2024-03-29T12:43:50;16.87;63.46
78490;DHT22;67776;52.012;4.736;2024-03-29T12:46:17;16.36;62.16
78490;DHT22;67776;52.012;4.736;2024-03-29T12:48:42;17.87;60.40
78490;DHT22;67776;52.012;4.736;2024-03-29T12:51:08;18.95;58.15
78490;DHT22;67776;52.012;4.736;2024-03-29T12:53:33;18.18;58.79
78490;DHT22;67776;52.012;4.736;2024-03-29T12:55:58;16.89;59.66
78490;DHT22;67776;52.012;4.736;2024-03-29T12:58:24;16.35;63.09
78490;DHT22;67776;52.012;4.736;2024-03-29T13:00:50;17.06;62.52
78490;DHT22;67776;52.012;4.736;2024-03-29T13:03:15;17.30;58.00
78490;DHT22;67776;52.012;4.736;2024-03-29T13:05:41;18.53;57.16
78490;DHT22;67776;52.012;4.736;2024-03-29T13:08:08;18.35;57.90
78490;DHT22;67776;52.012;4.736;2024-03-29T13:10:39;17.66;59.39
78490;DHT22;67776;52.012;4.736;2024-03-29T13:13:06;17.11;59.48
78490;DHT22;67776;52.012;4.736;2024-03-29T13:15:33;16.56;61.35
78490;DHT22;67776;52.012;4.736;2024-03-29T13:17:59;17.73;58.04
78490;DHT22;67776;52.012;4.736;2024-03-29T13:20:25;18.17;57.41
78490;DHT22;67776;52.012;4.736;2024-03-29T13:22:51;18.77;57.12
78490;DHT22;67776;52.012;4.736;2024-03-29T13:25:19;18.07;56.25
78490;DHT22;67776;52.012;4.736;2024-03-29T13:27:47;17.04;58.34
78490;DHT22;67776;52.012;4.736;2024-03-29T13:30:14;16.45;58.87
78490;DHT22;67776;52.012;4.736;2024-03-29T13:32:41;16.35;57.75
78490;DHT22;67776;52.012;4.736;2024-03-29T13:35:08;17.31;56.29
78490;DHT22;67776;52.012;4.736;2024-03-29T13:37:43;17.51;55.29
78490;DHT22;67776;52.012;4.736;2024-03-29T13:40:09;16.93;57.59
78490;DHT22;67776;52.012;4.736;2024-03-29T13:42:36;16.40;59.86
78490;DHT22;67776;52.012;4.736;2024-03-29T13:45:02;16.31;60.12
78490;DHT22;67776;52.012;4.736;2024-03-29T13:47:27;16.45;62.71
78490;DHT22;67776;52.012;4.736;2024-03-29T13:49:53;16.24;59.40
78490;DHT22;67776;52.012;4.736;2024-03-29T13:52:20;16.07;59.12
78490;DHT22;67776;52.012;4.736;2024-03-29T13:54:46;16.21;60.79
78490;DHT22;67776;52.012;4.736;2024-03-29T13:57:15;15.76;61.78
78490;DHT22;67776;52.012;4.736;2024-03-29T13:59:41;15.86;61.91
78490;DHT22;67776;52.012;4.736;2024-03-29T14:02:16;15.41;62.86
78490;DHT22;67776;52.012;4.736;2024-03-29T14:04:44;15.59;62.58
78490;DHT22;67776;52.012;4.736;2024-03-29T14:07:10;15.49;62.51
78490;DHT22;67776;52.012;4.736;2024-03-29T14:09:43;15.56;62.83
78490;DHT22;67776;52.012;4.736;2024-03-29T14:12:09;15.35;62.23
78490;DHT22;67776;52.012;4.736;2024-03-29T14:14:35;15.41;62.38
78490;DHT22;67776;52.012;4.736;2024-03-29T14:17:00;15.69;60.74
78490;DHT22;67776;52.012;4.736;2024-03-29T14:19:34;15.87;61.63
78490;DHT22;67776;52.012;4.736;2024-03-29T14:22:00;15.67;60.37
78490;DHT22;67776;52.012;4.736;2024-03-29T14:24:26;15.93;60.44
78490;DHT22;67776;52.012;4.736;2024-03-29T14:26:52;15.60;61.54
78490;DHT22;67776;52.012;4.736;2024-03-29T14:29:18;15.74;60.19
78490;DHT22;67776;52.012;4.736;2024-03-29T14:31:49;15.45;60.63
78490;DHT22;67776;52.012;4.736;2024-03-29T14:34:15;15.58;60.78
78490;DHT22;67776;52.012;4.736;2024-03-29T14:36:40;15.62;61.55
78490;DHT22;67776;52.012;4.736;2024-03-29T14:39:06;15.67;60.23
78490;DHT22;67776;52.012;4.736;2024-03-29T14:41:31;15.73;61.75
78490;DHT22;67776;52.012;4.736;2024-03-29T14:43:57;15.80;60.23
78490;DHT22;67776;52.012;4.736;2024-03-29T14:46:23;15.73;60.60
78490;DHT22;67776;52.012;4.736;2024-03-29T14:48:48;15.93;62.70
78490;DHT22;67776;52.012;4.736;2024-03-29T14:51:13;15.70;62.90
78490;DHT22;67776;52.012;4.736;2024-03-29T14:53:39;15.85;61.76
78490;DHT22;67776;52.012;4.736;2024-03-29T14:56:04;15.71;60.26
78490;DHT22;67776;52.012;4.736;2024-03-29T14:58:29;15.17;61.67
78490;DHT22;67776;52.012;4.736;2024-03-29T15:00:55;15.15;63.04
78490;DHT22;67776;52.012;4.736;2024-03-29T15:03:23;15.18;62.28
78490;DHT22;67776;52.012;4.736;2024-03-29T15:05:49;15.14;61.89
78490;DHT22;67776;52.012;4.736;2024-03-29T15:08:15;15.04;62.74
78490;DHT22;67776;52.012;4.736;2024-03-29T15:10:42;15.08;62.48
78490;DHT22;67776;52.012;4.736;2024-03-29T15:13:08;14.94;62.84
78490;DHT22;67776;52.012;4.736;2024-03-29T15:15:33;14.79;63.66
78490;DHT22;67776;52.012;4.736;2024-03-29T15:18:02;15.03;62.96
78490;DHT22;67776;52.012;4.736;2024-03-29T15:20:27;14.90;62.49
78490;DHT22;67776;52.012;4.736;2024-03-29T15:22:53;14.91;63.25
78490;DHT22;67776;52.012;4.736;2024-03-29T15:25:18;14.83;62.21
78490;DHT22;67776;52.012;4.736;2024-03-29T15:27:44;14.87;64.20
78490;DHT22;67776;52.012;4.736;2024-03-29T15:30:28;15.14;63.59
78490;DHT22;67776;52.012;4.736;2024-03-29T15:32:53;14.91;63.87
78490;DHT22;67776;52.012;4.736;2024-03-29T15:35:20;15.01;63.60
78490;DHT22;67776;52.012;4.736;2024-03-29T15:37:45;15.01;67.35